Elk Creek, VA (24326)

2:23 PM EST on December 20, 2014 (GMT -0500)
APRSWXNET Elk Creek VA US | Change Station
CLOSE
Current Station
Personal Weather Station
Location: Elk Creek, VA
Elevation: 2805 ft
Nearby Weather Stations

Elev 2805 ft 36.74 °N, 81.19 °W | Updated 35 minutes ago

Overcast
Overcast
39.0 °F
Feels Like 39.0 °F
N
1.0
Wind Variable Wind from NW

Today
High -- | Low -- °F
--% Chance of Precip.
Yesterday
High -- | Low -- °F
Precip. -- in
7:33 AM 5:11 PM
Waning Crescent, 2% visible
Pressure 30.16 in
Visibility 7.0 miles
Clouds Overcast 1600 ft
Dew Point 32.0 °F
Humidity 77%
Rainfall -999.00 in
Snow Depth Not available.
UV 1 out of 12
Pollen .10 out of 12
Air Quality Not available.
Flu Activity Not available.
METAR KMKJ 201915Z AUTO 00000KT 7SM OVC016 03/00 A3016 RMK AO2 T00281001

More Conditions Fewer Conditions

Pressure 30.16 in
Visibility 7.0 miles
Clouds Overcast 1600 ft
Dew Point 32.0 °F
Humidity 77%
Rainfall -999.00 in
Snow Depth Not available.
UV 1 out of 12
Pollen .10 out of 12
Air Quality Not available.
Flu Activity Not available.
METAR KMKJ 201915Z AUTO 00000KT 7SM OVC016 03/00 A3016 RMK AO2 T00281001

More Conditions Fewer Conditions

10-Day Weather Forecast

Almanac

Astronomy

Dec. 20, 2014 Rise Set
Actual Time
Civil Twilight
Nautical Twilight
Astronomical Twilight
Moon
Length of Visible Light
Length of Day
Tomorrow will be .
, % of the Moon is Illuminated

Today's Extremes

State Highs State Lows

Community

WunderPhotos

Upload Photos

1,779,256 photos uploaded!

WunderBlogs® & News

Nearby

Air Quality

  Air Quality AQ Index Pollutant
Not available.

Snow Depth

Station Depth Elevation

Earthquake Activity

City Distance Mag. Time & Date
Minimum magnitude displayed is 2.5.

Coastal Water Temperatures

Place Temperature

Nearby Weather Stations